Reklama

Seznam meteostanic a jejich METAR

Vyhledat místa podle abecedy:
A B C D E F G H I J K L M N O P Q R S T U V W X Y Z

Filtrovat:

ID stanice:
a/nebo
Název místa (fulltext):
 
Místo (ID)Naposledy načteno 
Yamoussoukro (DIYO) 15.12.2019 20:00 UTC Zobrazit METAR
DIYO 152000Z 00000KT 9999 FEW013 26/24 Q1010 NOSIG
Yangon (VYYY) 15.12.2019 20:30 UTC Zobrazit METAR
VYYY 152030Z 01003KT 6000 NSC 21/17 Q1012
Yaounde (FKYS) 15.12.2019 21:00 UTC Zobrazit METAR
FKYS 152100Z 00000KT 6000 FEW006 22/21 Q1016 NOSIG
Yerevan (UGEE) Zatím nenačteno  
Reklama

Počasí na Váš email

Emaily jsou bez reklamy a bez spamu



Odhlásit newsletter

Reklama


Lunární kalendář

  • 19.12.
  • 26.12.
  • 03.01.
  • 10.01.



Reklama


Reklama
Povinné ručení
Reklama



Reklama